Aviation Digital Data Service (ADDS)

Output produced by METARs form (0603 UTC 16 February 2019)
found at http://www.aviationweather.gov/metar/data/
 
Forecast for: YBCS (CAIRNS AIRPORT , AU)
Text: TAF YBCS 160528Z 1606/1706 13012KT 9999 FEW025 SCT040
Forecast period: 0600 to 0800 UTC 16 February 2019
Forecast type: FROM: standard forecast or significant change
Winds: from the SE (130 degrees) at 14 MPH (12 knots; 6.2 m/s)
Visibility: 6 or more miles 10+ km)
Ceiling: at least 12,000 feet AGL
Clouds: few clouds at 2500 feet AGL
scattered clouds at 4000 feet AGL
Weather: no significant weather forecast for this period
Text: FM160800 VRB05KT 9999 FEW022
Forecast period: 0800 UTC 16 February 2019 to 0100 UTC 17 February 2019
Forecast type: FROM: standard forecast or significant change
Winds: variable direction winds at 6 MPH (5 knots; 2.6 m/s)
Visibility: 6 or more miles 10+ km)
Ceiling: at least 12,000 feet AGL
Clouds: few clouds at 2200 feet AGL
Weather: no significant weather forecast for this period
Text: FM170100 13010KT 9999 FEW025 SCT040
Forecast period: 0100 to 0600 UTC 17 February 2019
Forecast type: FROM: standard forecast or significant change
Winds: from the SE (130 degrees) at 12 MPH (10 knots; 5.1 m/s)
Visibility: 6 or more miles 10+ km)
Ceiling: at least 12,000 feet AGL
Clouds: few clouds at 2500 feet AGL
scattered clouds at 4000 feet AGL
Weather: no significant weather forecast for this period